Terminal Aerodrome Forecast
Issued by NWS

Home | Current Version | Previous Version | Text Only | Print | Product List | Glossary On
Versions: 1 2 3 4 5 6 7 8 9 10 11 12 13 14 15 16 17
598
FTUS45 KRIW 191725
TAFCPR
TAF
KCPR 191725Z 1918/2018 23012G22KT P6SM FEW080 SCT250
     FM192300 26009KT P6SM VCTS SCT080CB BKN250
     FM200700 VRB05KT P6SM VCTS SCT080CB BKN250
     FM201000 21008KT P6SM SCT080 BKN150
     FM201500 21010G18KT P6SM SCT080 BKN200=

USA.gov is the U.S. government's official web portal to all federal, state and local government web resources and services.